Time;durP1;ratioP1;P1;durP2;ratioP2;P2;SDS_P1;SDS_P2;PMS_P1;PMS_P2;Temp;Humidity;BMP_temperature;BMP_pressure;BME280_temperature;BME280_humidity;BME280_pressure;Samples;Min_cycle;Max_cycle;Signal;HPM_P1;HPM_P2
2022/03/19 00:00:58;;;;;;;12.82;6.30;;;;;;;;;;5008187;28;20041;-74
2022/03/19 00:03:25;;;;;;;11.63;6.72;;;;;;;;;;5008205;28;20026;-73
2022/03/19 00:05:51;;;;;;;21.23;7.32;;;;;;;;;;4989724;28;20112;-74
2022/03/19 00:08:17;;;;;;;16.05;6.07;;;;;;;;;;5005809;28;20116;-74
2022/03/19 00:10:44;;;;;;;19.70;6.78;;;;;;;;;;5009145;28;20041;-73
2022/03/19 00:13:10;;;;;;;18.42;7.28;;;;;;;;;;5002126;28;20480;-73
2022/03/19 00:15:37;;;;;;;17.98;7.85;;;;;;;;;;5005370;28;20404;-74
2022/03/19 00:18:03;;;;;;;18.48;8.20;;;;;;;;;;5005669;28;20030;-73
2022/03/19 00:20:30;;;;;;;17.05;8.25;;;;;;;;;;5008127;28;20423;-73
2022/03/19 00:22:56;;;;;;;19.27;7.93;;;;;;;;;;5006732;28;20029;-73
2022/03/19 00:25:22;;;;;;;24.00;8.73;;;;;;;;;;5006987;28;20034;-73
2022/03/19 00:27:48;;;;;;;11.20;6.72;;;;;;;;;;5004582;28;20488;-73
2022/03/19 00:30:14;;;;;;;11.23;6.18;;;;;;;;;;5005050;28;20033;-73
2022/03/19 00:32:40;;;;;;;13.00;4.68;;;;;;;;;;5004495;28;20030;-73
2022/03/19 00:35:07;;;;;;;7.07;3.95;;;;;;;;;;5008178;28;20104;-74
2022/03/19 00:37:42;;;;;;;5.07;3.42;;;;;;;;;;5004675;28;20112;-73
2022/03/19 00:40:08;;;;;;;9.60;3.50;;;;;;;;;;5006205;28;20569;-73
2022/03/19 00:42:35;;;;;;;7.35;3.08;;;;;;;;;;5005016;28;20040;-73
2022/03/19 00:45:01;;;;;;;7.20;3.58;;;;;;;;;;5006304;28;20546;-73
2022/03/19 00:47:27;;;;;;;10.10;3.60;;;;;;;;;;5006497;28;20034;-73
2022/03/19 00:49:53;;;;;;;8.52;3.45;;;;;;;;;;5011363;28;20115;-73
2022/03/19 00:52:19;;;;;;;7.65;3.40;;;;;;;;;;5008539;28;20040;-73
2022/03/19 00:54:45;;;;;;;7.00;3.15;;;;;;;;;;5007055;28;20034;-74
2022/03/19 00:57:12;;;;;;;6.07;3.40;;;;;;;;;;5005443;28;20026;-73
2022/03/19 00:59:38;;;;;;;8.80;3.30;;;;;;;;;;5001213;28;20022;-74
2022/03/19 01:02:04;;;;;;;9.30;3.65;;;;;;;;;;4987946;28;20034;-74
2022/03/19 01:04:30;;;;;;;6.40;3.47;;;;;;;;;;5006225;28;20022;-74
2022/03/19 01:06:56;;;;;;;4.80;3.28;;;;;;;;;;5006467;28;20030;-73
2022/03/19 01:09:22;;;;;;;6.32;3.15;;;;;;;;;;5008157;28;20033;-74
2022/03/19 01:11:49;;;;;;;9.13;3.38;;;;;;;;;;5007088;28;20060;-73
2022/03/19 01:14:15;;;;;;;8.18;3.33;;;;;;;;;;5007352;28;20480;-74
2022/03/19 01:16:41;;;;;;;8.07;3.25;;;;;;;;;;5005971;28;20030;-73
2022/03/19 01:19:07;;;;;;;4.32;2.80;;;;;;;;;;5005775;28;20025;-74
2022/03/19 01:21:33;;;;;;;5.72;3.05;;;;;;;;;;5007597;28;20105;-72
2022/03/19 01:23:59;;;;;;;4.20;2.90;;;;;;;;;;5010719;28;20060;-73
2022/03/19 01:26:25;;;;;;;9.80;4.63;;;;;;;;;;5012828;28;20434;-73
2022/03/19 01:28:51;;;;;;;5.55;3.60;;;;;;;;;;5008474;28;20567;-73
2022/03/19 01:31:19;;;;;;;6.50;3.65;;;;;;;;;;5010401;28;20060;-72
2022/03/19 01:33:45;;;;;;;6.57;3.70;;;;;;;;;;5010590;28;20136;-72
2022/03/19 01:36:11;;;;;;;8.00;4.75;;;;;;;;;;5012178;28;20476;-74
2022/03/19 01:38:37;;;;;;;7.95;3.47;;;;;;;;;;5010709;28;20029;-74
2022/03/19 01:41:04;;;;;;;7.72;3.03;;;;;;;;;;5010356;28;20481;-74
2022/03/19 01:43:30;;;;;;;5.78;3.25;;;;;;;;;;4989158;28;20120;-74
2022/03/19 01:45:56;;;;;;;8.40;3.72;;;;;;;;;;5011097;28;20484;-73
2022/03/19 01:48:22;;;;;;;5.45;3.05;;;;;;;;;;5009870;28;20034;-73
2022/03/19 01:50:48;;;;;;;5.72;2.85;;;;;;;;;;5009008;28;20587;-73
2022/03/19 01:53:14;;;;;;;5.50;2.78;;;;;;;;;;5009098;28;20499;-72
2022/03/19 01:55:40;;;;;;;7.35;3.33;;;;;;;;;;5010526;28;20049;-74
2022/03/19 01:58:06;;;;;;;7.07;3.53;;;;;;;;;;4992662;28;20033;-73
2022/03/19 02:00:33;;;;;;;8.88;4.53;;;;;;;;;;5003946;28;20659;-73
2022/03/19 02:02:59;;;;;;;10.65;3.30;;;;;;;;;;5009580;28;20038;-73
2022/03/19 02:05:25;;;;;;;7.90;3.47;;;;;;;;;;5009234;28;20101;-73
2022/03/19 02:07:52;;;;;;;5.50;2.92;;;;;;;;;;5003274;28;20029;-72
2022/03/19 02:10:19;;;;;;;6.53;3.65;;;;;;;;;;5008778;28;20022;-73
2022/03/19 02:12:45;;;;;;;7.18;3.47;;;;;;;;;;5007314;28;20588;-73
2022/03/19 02:15:13;;;;;;;7.60;3.05;;;;;;;;;;5005236;28;20034;-73
2022/03/19 02:17:39;;;;;;;3.90;2.97;;;;;;;;;;5006410;28;20808;-73
2022/03/19 02:20:06;;;;;;;8.75;3.22;;;;;;;;;;5010482;28;20437;-73
2022/03/19 02:22:32;;;;;;;8.70;2.95;;;;;;;;;;5005857;28;20014;-72
2022/03/19 02:27:44;;;;;;;7.63;3.83;;;;;;;;;;5006995;28;20099;-73
2022/03/19 02:30:11;;;;;;;8.55;3.63;;;;;;;;;;5008780;28;20484;-72
2022/03/19 02:32:42;;;;;;;9.38;3.53;;;;;;;;;;5009817;28;20034;-73
2022/03/19 02:35:09;;;;;;;4.07;2.83;;;;;;;;;;5003421;28;20488;-73
2022/03/19 02:37:43;;;;;;;6.43;2.85;;;;;;;;;;5009348;28;20389;-73
2022/03/19 02:40:10;;;;;;;7.25;3.35;;;;;;;;;;5006459;28;20515;-72
2022/03/19 02:42:36;;;;;;;5.63;2.90;;;;;;;;;;5008287;28;20029;-73
2022/03/19 02:45:02;;;;;;;5.13;3.00;;;;;;;;;;5006250;28;20508;-72
2022/03/19 02:47:28;;;;;;;9.50;2.90;;;;;;;;;;5008741;28;20065;-72
2022/03/19 02:49:55;;;;;;;6.57;3.08;;;;;;;;;;5006010;28;20097;-73
2022/03/19 02:52:21;;;;;;;5.03;3.20;;;;;;;;;;5008999;28;20022;-72
2022/03/19 02:54:47;;;;;;;6.05;3.10;;;;;;;;;;5007971;28;20057;-72
2022/03/19 02:57:13;;;;;;;6.93;3.58;;;;;;;;;;5007836;28;20034;-72
2022/03/19 02:59:39;;;;;;;5.30;3.00;;;;;;;;;;5007036;28;20032;-72
2022/03/19 03:02:07;;;;;;;5.80;3.38;;;;;;;;;;5007526;28;20026;-72
2022/03/19 03:04:34;;;;;;;5.60;3.00;;;;;;;;;;5004433;28;20025;-71
2022/03/19 03:07:04;;;;;;;5.50;3.08;;;;;;;;;;5007858;28;20041;-72
2022/03/19 03:09:31;;;;;;;5.97;3.63;;;;;;;;;;5008062;28;20056;-73
2022/03/19 03:12:02;;;;;;;7.95;2.80;;;;;;;;;;4990640;28;20026;-73
2022/03/19 03:14:28;;;;;;;4.75;2.70;;;;;;;;;;5008006;28;20030;-73
2022/03/19 03:16:54;;;;;;;6.25;2.90;;;;;;;;;;5007081;28;20058;-73
2022/03/19 03:19:20;;;;;;;5.55;3.20;;;;;;;;;;5009726;28;20026;-73
2022/03/19 03:21:47;;;;;;;3.90;2.65;;;;;;;;;;5006244;28;20022;-73
2022/03/19 03:24:14;;;;;;;5.85;3.08;;;;;;;;;;4989910;28;20034;-72
2022/03/19 03:26:40;;;;;;;5.38;3.25;;;;;;;;;;4989330;28;20033;-73
2022/03/19 03:29:06;;;;;;;10.05;2.70;;;;;;;;;;5009762;28;20512;-73
2022/03/19 03:31:33;;;;;;;5.10;2.95;;;;;;;;;;5006924;28;20152;-72
2022/03/19 03:34:00;;;;;;;5.03;2.85;;;;;;;;;;4991656;28;20369;-72
2022/03/19 03:36:26;;;;;;;5.18;2.97;;;;;;;;;;5004312;28;20060;-73
2022/03/19 03:38:52;;;;;;;4.32;2.42;;;;;;;;;;5007988;28;20030;-72
2022/03/19 03:41:18;;;;;;;7.32;2.58;;;;;;;;;;5006861;28;20034;-72
2022/03/19 03:43:45;;;;;;;5.10;2.75;;;;;;;;;;5006248;28;20092;-72
2022/03/19 03:46:11;;;;;;;4.28;2.58;;;;;;;;;;5007981;28;20790;-72
2022/03/19 03:48:38;;;;;;;3.63;2.50;;;;;;;;;;5006917;28;20103;-72
2022/03/19 03:51:08;;;;;;;5.32;2.13;;;;;;;;;;4993818;28;20395;-72
2022/03/19 03:53:35;;;;;;;4.85;2.22;;;;;;;;;;5013378;28;20100;-74
2022/03/19 03:56:01;;;;;;;6.30;2.85;;;;;;;;;;5009422;28;20104;-73
2022/03/19 03:58:27;;;;;;;6.53;2.10;;;;;;;;;;5007360;28;20029;-73
2022/03/19 04:00:53;;;;;;;4.78;2.67;;;;;;;;;;5008193;28;20084;-73
2022/03/19 04:03:20;;;;;;;6.25;2.85;;;;;;;;;;5006497;28;20030;-73
2022/03/19 04:05:46;;;;;;;6.28;2.50;;;;;;;;;;5005423;28;20396;-73
2022/03/19 04:08:12;;;;;;;4.82;2.50;;;;;;;;;;5001950;28;20052;-72
2022/03/19 04:10:38;;;;;;;4.63;2.30;;;;;;;;;;5008841;28;20036;-73
2022/03/19 04:13:04;;;;;;;7.18;2.60;;;;;;;;;;5006065;28;20033;-74
2022/03/19 04:15:30;;;;;;;3.08;2.38;;;;;;;;;;5008113;28;20053;-74
2022/03/19 04:17:56;;;;;;;4.30;2.40;;;;;;;;;;5006774;28;20029;-74
2022/03/19 04:20:22;;;;;;;4.13;2.20;;;;;;;;;;5006861;28;20033;-74
2022/03/19 04:22:49;;;;;;;8.35;4.25;;;;;;;;;;5009185;28;20034;-74
2022/03/19 04:25:19;;;;;;;7.07;2.60;;;;;;;;;;5005847;28;20032;-73
2022/03/19 04:27:47;;;;;;;3.85;2.78;;;;;;;;;;5008661;28;20064;-73
2022/03/19 04:30:14;;;;;;;6.53;2.08;;;;;;;;;;5005820;28;20495;-74
2022/03/19 04:32:43;;;;;;;6.95;2.85;;;;;;;;;;5008184;28;20050;-73
2022/03/19 04:38:15;;;;;;;6.07;2.22;;;;;;;;;;5006268;28;20080;-73
2022/03/19 04:40:42;;;;;;;10.23;2.60;;;;;;;;;;5006178;28;20050;-74
2022/03/19 04:43:08;;;;;;;6.60;3.22;;;;;;;;;;5007668;28;20104;-73
2022/03/19 04:45:35;;;;;;;9.27;2.70;;;;;;;;;;5006910;28;20072;-73
2022/03/19 04:48:01;;;;;;;3.25;2.10;;;;;;;;;;5005903;28;20120;-73
2022/03/19 04:50:28;;;;;;;7.72;2.67;;;;;;;;;;5004325;28;20390;-74
2022/03/19 04:52:55;;;;;;;12.05;2.85;;;;;;;;;;5008216;28;20037;-75
2022/03/19 04:55:21;;;;;;;4.55;2.20;;;;;;;;;;5006485;28;20856;-74
2022/03/19 04:57:48;;;;;;;5.32;2.33;;;;;;;;;;5008509;28;20037;-74
2022/03/19 05:00:16;;;;;;;6.60;2.50;;;;;;;;;;5011528;28;20508;-72
2022/03/19 05:02:43;;;;;;;4.20;2.50;;;;;;;;;;4993643;28;20416;-73
2022/03/19 05:05:09;;;;;;;8.93;3.65;;;;;;;;;;5009949;28;20026;-74
2022/03/19 05:07:35;;;;;;;10.38;2.85;;;;;;;;;;5010210;28;20052;-73
2022/03/19 05:12:47;;;;;;;4.03;2.58;;;;;;;;;;5011420;28;20080;-74
2022/03/19 05:15:14;;;;;;;5.07;2.60;;;;;;;;;;5010827;28;20045;-73
2022/03/19 05:17:40;;;;;;;6.13;2.85;;;;;;;;;;5009901;28;20073;-73
2022/03/19 05:20:07;;;;;;;12.13;3.75;;;;;;;;;;4991569;28;20080;-73
2022/03/19 05:22:34;;;;;;;4.20;2.85;;;;;;;;;;5010863;28;20116;-73
2022/03/19 05:25:00;;;;;;;7.35;3.10;;;;;;;;;;5011158;28;20120;-73
2022/03/19 05:27:26;;;;;;;9.25;3.13;;;;;;;;;;5005223;28;20582;-73
2022/03/19 05:29:53;;;;;;;6.80;2.88;;;;;;;;;;5009726;28;20100;-72
2022/03/19 05:32:19;;;;;;;7.03;2.88;;;;;;;;;;5010985;28;20064;-74
2022/03/19 05:34:46;;;;;;;5.50;3.33;;;;;;;;;;5010941;28;20029;-73
2022/03/19 05:37:12;;;;;;;5.68;2.80;;;;;;;;;;5010452;28;20049;-73
2022/03/19 05:39:39;;;;;;;6.22;2.90;;;;;;;;;;5009117;28;20152;-73
2022/03/19 05:42:05;;;;;;;11.32;3.40;;;;;;;;;;5011018;28;20028;-73
2022/03/19 05:44:32;;;;;;;5.68;3.97;;;;;;;;;;5009128;28;20034;-73
2022/03/19 05:46:58;;;;;;;7.90;3.45;;;;;;;;;;5010822;28;20784;-73
2022/03/19 05:49:28;;;;;;;8.93;3.45;;;;;;;;;;5007063;28;20132;-73
2022/03/19 05:51:55;;;;;;;4.72;2.80;;;;;;;;;;5008139;28;20044;-73
2022/03/19 05:54:21;;;;;;;7.78;3.10;;;;;;;;;;5010188;28;20048;-73
2022/03/19 05:56:47;;;;;;;10.45;3.08;;;;;;;;;;5010207;28;20050;-73
2022/03/19 05:59:13;;;;;;;7.03;3.05;;;;;;;;;;5008779;28;20056;-73
2022/03/19 06:01:41;;;;;;;6.72;3.00;;;;;;;;;;5009856;28;20072;-73
2022/03/19 06:04:08;;;;;;;10.75;3.67;;;;;;;;;;5008103;28;20021;-73
2022/03/19 06:06:34;;;;;;;10.05;4.00;;;;;;;;;;4990788;28;20443;-74
2022/03/19 06:09:00;;;;;;;8.80;3.00;;;;;;;;;;5008642;28;20041;-74
2022/03/19 06:11:27;;;;;;;9.57;3.53;;;;;;;;;;5009444;28;20100;-74
2022/03/19 06:13:53;;;;;;;6.97;3.78;;;;;;;;;;5007416;28;20033;-73
2022/03/19 06:16:19;;;;;;;8.80;4.18;;;;;;;;;;4993609;28;20561;-74
2022/03/19 06:18:50;;;;;;;12.27;3.70;;;;;;;;;;5009830;28;20034;-74
2022/03/19 06:21:17;;;;;;;9.15;3.58;;;;;;;;;;4994539;28;20029;-73
2022/03/19 06:23:45;;;;;;;10.80;5.38;;;;;;;;;;5008350;28;20476;-73
2022/03/19 06:26:11;;;;;;;4.38;3.15;;;;;;;;;;5009004;28;20030;-73
2022/03/19 06:28:37;;;;;;;5.55;4.07;;;;;;;;;;5009568;28;20540;-73
2022/03/19 06:31:03;;;;;;;8.48;3.75;;;;;;;;;;5010291;28;20486;-74
2022/03/19 06:33:29;;;;;;;11.70;5.65;;;;;;;;;;5009194;28;20127;-74
2022/03/19 06:38:40;;;;;;;10.27;4.38;;;;;;;;;;5007452;28;20431;-74
2022/03/19 06:41:07;;;;;;;11.30;5.05;;;;;;;;;;5010553;28;20134;-73
2022/03/19 06:43:33;;;;;;;8.73;5.05;;;;;;;;;;5008350;28;20030;-73
2022/03/19 06:45:59;;;;;;;10.30;4.90;;;;;;;;;;4989978;28;20038;-73
2022/03/19 06:48:26;;;;;;;10.52;5.25;;;;;;;;;;5005760;28;20037;-73
2022/03/19 06:50:54;;;;;;;10.10;5.05;;;;;;;;;;4992706;28;20080;-74
2022/03/19 06:53:20;;;;;;;13.23;6.05;;;;;;;;;;5005787;28;20033;-74
2022/03/19 06:55:46;;;;;;;11.68;6.18;;;;;;;;;;5009293;28;20132;-74
2022/03/19 06:58:12;;;;;;;11.52;6.18;;;;;;;;;;5009196;28;20034;-74
2022/03/19 07:00:39;;;;;;;10.57;5.75;;;;;;;;;;5009463;28;20030;-73
2022/03/19 07:03:06;;;;;;;13.95;6.43;;;;;;;;;;5009162;28;20026;-73
2022/03/19 07:05:32;;;;;;;12.10;6.38;;;;;;;;;;5007547;28;20022;-73
2022/03/19 07:07:59;;;;;;;13.80;6.97;;;;;;;;;;5007545;28;20696;-73
2022/03/19 07:10:25;;;;;;;15.10;6.55;;;;;;;;;;5008925;28;20025;-74
2022/03/19 07:12:52;;;;;;;10.40;6.15;;;;;;;;;;5007867;28;20033;-74
2022/03/19 07:15:20;;;;;;;12.43;6.80;;;;;;;;;;5007202;28;20034;-74
2022/03/19 07:17:46;;;;;;;12.32;7.15;;;;;;;;;;5009555;28;20033;-73
2022/03/19 07:20:14;;;;;;;15.02;7.07;;;;;;;;;;5007733;28;20045;-73
2022/03/19 07:22:49;;;;;;;12.40;6.25;;;;;;;;;;5008953;28;20443;-73
2022/03/19 07:25:15;;;;;;;9.63;6.05;;;;;;;;;;5007515;28;20140;-74
2022/03/19 07:27:41;;;;;;;18.00;8.98;;;;;;;;;;4987952;28;20029;-74
2022/03/19 07:30:07;;;;;;;9.40;6.47;;;;;;;;;;5007760;28;20496;-74
2022/03/19 07:32:33;;;;;;;12.32;6.53;;;;;;;;;;5009370;28;20057;-73
2022/03/19 07:35:00;;;;;;;13.23;6.85;;;;;;;;;;5006601;28;20041;-73
2022/03/19 07:37:26;;;;;;;14.45;7.20;;;;;;;;;;5007268;28;20030;-75
2022/03/19 07:39:52;;;;;;;13.27;7.05;;;;;;;;;;5004295;28;20042;-74
2022/03/19 07:42:18;;;;;;;14.70;7.85;;;;;;;;;;5007608;28;20566;-73
2022/03/19 07:44:44;;;;;;;14.52;7.35;;;;;;;;;;5010194;28;20029;-73
2022/03/19 07:47:11;;;;;;;13.13;7.13;;;;;;;;;;5005036;28;20088;-74
2022/03/19 07:49:37;;;;;;;14.50;7.68;;;;;;;;;;5007895;28;20033;-74
2022/03/19 07:52:05;;;;;;;14.65;8.13;;;;;;;;;;5008337;28;20927;-73
2022/03/19 07:54:32;;;;;;;8.88;6.45;;;;;;;;;;5007331;28;20068;-74
2022/03/19 07:56:58;;;;;;;13.85;7.75;;;;;;;;;;5007548;28;20030;-72
2022/03/19 07:59:28;;;;;;;12.65;7.20;;;;;;;;;;5006743;28;20041;-72
2022/03/19 08:01:54;;;;;;;13.20;7.10;;;;;;;;;;5007597;28;20029;-72
2022/03/19 08:04:20;;;;;;;11.00;7.82;;;;;;;;;;5005846;28;20599;-73
2022/03/19 08:06:46;;;;;;;18.65;8.45;;;;;;;;;;5007481;28;20034;-74
2022/03/19 08:09:12;;;;;;;15.95;8.15;;;;;;;;;;5005631;28;20512;-73
2022/03/19 08:11:40;;;;;;;15.43;8.40;;;;;;;;;;5006695;28;20038;-72
2022/03/19 08:14:07;;;;;;;14.23;6.85;;;;;;;;;;4987043;28;20026;-74
2022/03/19 08:16:34;;;;;;;18.50;7.03;;;;;;;;;;5004876;28;20076;-73
2022/03/19 08:19:00;;;;;;;15.27;6.88;;;;;;;;;;5007878;28;20030;-73
2022/03/19 08:21:27;;;;;;;13.90;8.57;;;;;;;;;;5006385;28;20472;-73
2022/03/19 08:23:53;;;;;;;10.80;7.15;;;;;;;;;;5007281;28;20037;-72
2022/03/19 08:26:19;;;;;;;9.75;7.32;;;;;;;;;;5006115;28;20522;-72
2022/03/19 08:28:45;;;;;;;15.02;7.07;;;;;;;;;;5008579;28;20037;-74
2022/03/19 08:31:11;;;;;;;13.90;7.90;;;;;;;;;;5010355;28;20101;-74
2022/03/19 08:33:37;;;;;;;12.68;6.80;;;;;;;;;;5004586;28;20124;-74
2022/03/19 08:36:03;;;;;;;12.05;6.70;;;;;;;;;;5009033;28;20033;-73
2022/03/19 08:41:14;;;;;;;9.85;6.53;;;;;;;;;;5009251;28;20061;-74
2022/03/19 08:43:40;;;;;;;12.07;6.57;;;;;;;;;;5003245;28;22037;-74
2022/03/19 08:46:06;;;;;;;9.73;6.88;;;;;;;;;;5004372;28;20036;-73
2022/03/19 08:48:33;;;;;;;10.75;6.60;;;;;;;;;;5003490;28;20405;-74
2022/03/19 08:51:39;;;;;;;10.68;6.57;;;;;;;;;;5002514;28;20041;-74
2022/03/19 08:53:45;;;;;;;10.40;6.78;;;;;;;;;;5005118;28;20889;-73
2022/03/19 08:56:11;;;;;;;12.70;7.38;;;;;;;;;;5006890;28;20030;-73
2022/03/19 08:58:38;;;;;;;11.70;7.70;;;;;;;;;;4993851;28;20024;-73
2022/03/19 09:01:04;;;;;;;10.55;5.80;;;;;;;;;;4989609;28;20160;-73
2022/03/19 09:03:30;;;;;;;17.58;6.65;;;;;;;;;;5000695;28;20543;-73
2022/03/19 09:05:56;;;;;;;12.98;5.82;;;;;;;;;;5005926;28;20492;-73
2022/03/19 09:08:23;;;;;;;12.73;6.45;;;;;;;;;;5002275;28;20033;-74
2022/03/19 09:10:49;;;;;;;12.60;6.00;;;;;;;;;;5004816;28;20519;-73
2022/03/19 09:13:15;;;;;;;12.25;5.38;;;;;;;;;;5003737;28;20643;-73
2022/03/19 09:15:41;;;;;;;10.52;5.00;;;;;;;;;;5003910;28;20029;-75
2022/03/19 09:18:07;;;;;;;8.07;5.53;;;;;;;;;;5007321;28;20029;-74
2022/03/19 09:20:33;;;;;;;7.68;5.00;;;;;;;;;;5003754;28;20029;-74
2022/03/19 09:23:02;;;;;;;9.30;4.70;;;;;;;;;;4988945;28;20033;-75
2022/03/19 09:25:28;;;;;;;8.77;5.13;;;;;;;;;;5008547;28;20018;-75
2022/03/19 09:27:54;;;;;;;12.88;5.40;;;;;;;;;;5005049;28;20110;-73
2022/03/19 09:30:20;;;;;;;9.73;5.18;;;;;;;;;;5005343;28;20054;-74
2022/03/19 09:32:46;;;;;;;7.60;4.80;;;;;;;;;;5001650;28;20420;-75
2022/03/19 09:35:12;;;;;;;9.68;5.72;;;;;;;;;;4985359;28;20049;-74
2022/03/19 09:37:39;;;;;;;8.68;4.75;;;;;;;;;;5009336;28;20055;-75
2022/03/19 09:40:05;;;;;;;9.77;5.15;;;;;;;;;;4990914;28;20039;-74
2022/03/19 09:42:32;;;;;;;8.93;5.35;;;;;;;;;;5008738;28;20049;-74
2022/03/19 09:44:59;;;;;;;10.60;5.38;;;;;;;;;;5008248;28;20037;-74
2022/03/19 09:47:25;;;;;;;7.90;4.68;;;;;;;;;;5009380;28;20113;-75
2022/03/19 09:49:51;;;;;;;12.15;5.25;;;;;;;;;;4995566;28;20025;-73
2022/03/19 09:52:20;;;;;;;9.00;4.88;;;;;;;;;;5015980;28;20068;-73
2022/03/19 09:54:47;;;;;;;6.97;5.05;;;;;;;;;;5008091;28;20040;-73
2022/03/19 09:57:13;;;;;;;10.75;5.18;;;;;;;;;;5008921;28;20369;-72
2022/03/19 09:59:39;;;;;;;9.32;4.97;;;;;;;;;;5011228;28;20423;-73
2022/03/19 10:02:11;;;;;;;6.50;4.47;;;;;;;;;;5011355;28;20519;-73
2022/03/19 10:04:40;;;;;;;6.47;4.38;;;;;;;;;;5012188;28;20022;-74
2022/03/19 10:09:52;;;;;;;7.80;4.55;;;;;;;;;;5013094;28;20048;-73
2022/03/19 10:12:22;;;;;;;7.10;4.45;;;;;;;;;;5011231;28;20113;-73
2022/03/19 10:14:51;;;;;;;6.53;4.13;;;;;;;;;;5012114;28;20030;-74
2022/03/19 10:17:29;;;;;;;9.32;4.18;;;;;;;;;;4993326;28;20538;-74
2022/03/19 10:19:59;;;;;;;8.98;3.92;;;;;;;;;;5006488;28;20057;-75
2022/03/19 10:22:26;;;;;;;8.60;4.90;;;;;;;;;;5007827;28;20357;-75
2022/03/19 10:24:57;;;;;;;6.38;4.30;;;;;;;;;;5004737;28;20036;-75
2022/03/19 10:27:23;;;;;;;8.95;4.53;;;;;;;;;;5009173;28;20053;-74
2022/03/19 10:30:00;;;;;;;7.50;4.88;;;;;;;;;;5006896;28;20088;-74
2022/03/19 10:32:28;;;;;;;5.05;3.60;;;;;;;;;;5007852;28;20030;-74
2022/03/19 10:34:54;;;;;;;6.25;3.90;;;;;;;;;;4995975;28;20022;-75
2022/03/19 10:37:34;;;;;;;8.82;4.32;;;;;;;;;;5009471;28;20032;-75
2022/03/19 10:40:00;;;;;;;7.38;3.75;;;;;;;;;;5011751;28;20088;-76
2022/03/19 10:42:26;;;;;;;7.68;3.90;;;;;;;;;;5007884;28;20113;-74
2022/03/19 10:44:52;;;;;;;6.65;3.97;;;;;;;;;;5008172;28;20033;-74
2022/03/19 10:47:22;;;;;;;7.10;4.60;;;;;;;;;;5006359;28;20030;-74
2022/03/19 10:49:48;;;;;;;6.35;3.92;;;;;;;;;;4986744;28;20037;-74
2022/03/19 10:52:17;;;;;;;5.03;3.72;;;;;;;;;;5008419;28;20022;-74
2022/03/19 10:54:45;;;;;;;6.60;3.95;;;;;;;;;;5016540;28;20036;-76
2022/03/19 10:57:11;;;;;;;5.53;3.65;;;;;;;;;;5013481;28;20030;-75
2022/03/19 10:59:37;;;;;;;8.02;4.05;;;;;;;;;;5009701;28;20096;-74
2022/03/19 11:02:03;;;;;;;4.22;3.67;;;;;;;;;;5006790;28;20033;-75
2022/03/19 11:04:31;;;;;;;6.65;3.45;;;;;;;;;;4993768;28;20036;-74
2022/03/19 11:06:59;;;;;;;5.10;3.30;;;;;;;;;;5009679;28;20054;-74
2022/03/19 11:09:27;;;;;;;4.10;3.38;;;;;;;;;;4998663;28;20061;-78
2022/03/19 11:11:57;;;;;;;6.57;3.20;;;;;;;;;;5004672;28;20064;-75
2022/03/19 11:14:30;;;;;;;5.50;3.50;;;;;;;;;;4998021;28;20026;-75
2022/03/19 11:17:32;;;;;;;5.32;3.40;;;;;;;;;;5005761;28;20090;-75
2022/03/19 11:20:04;;;;;;;6.95;3.42;;;;;;;;;;4962724;28;20116;-74
2022/03/19 11:22:39;;;;;;;3.83;2.90;;;;;;;;;;5004701;28;20030;-74
2022/03/19 11:25:06;;;;;;;5.15;3.75;;;;;;;;;;5006081;28;20030;-75
2022/03/19 11:27:35;;;;;;;5.82;3.30;;;;;;;;;;5005180;28;20060;-76
2022/03/19 11:30:03;;;;;;;4.88;3.42;;;;;;;;;;5001459;28;20590;-77
2022/03/19 11:32:30;;;;;;;5.40;3.15;;;;;;;;;;5002247;28;20124;-76
2022/03/19 11:34:59;;;;;;;8.48;3.15;;;;;;;;;;4987529;28;20060;-75
2022/03/19 11:38:01;;;;;;;7.32;4.20;;;;;;;;;;5005363;28;20105;-74
2022/03/19 11:40:29;;;;;;;5.25;3.35;;;;;;;;;;4971201;28;20112;-75
2022/03/19 11:42:55;;;;;;;5.45;3.25;;;;;;;;;;5004707;28;20053;-75
2022/03/19 11:45:21;;;;;;;6.40;3.53;;;;;;;;;;5005052;28;20488;-75
2022/03/19 11:47:47;;;;;;;4.15;2.88;;;;;;;;;;5002084;28;20080;-75
2022/03/19 11:50:23;;;;;;;4.95;2.90;;;;;;;;;;5002875;28;20034;-75
2022/03/19 11:52:49;;;;;;;5.68;2.88;;;;;;;;;;5001950;28;20121;-74
2022/03/19 11:55:19;;;;;;;4.95;3.60;;;;;;;;;;5004178;28;20034;-75
2022/03/19 11:57:55;;;;;;;5.20;3.28;;;;;;;;;;5003397;28;20092;-75
2022/03/19 12:00:23;;;;;;;8.98;3.85;;;;;;;;;;5002449;28;20038;-76
2022/03/19 12:03:10;;;;;;;4.75;2.72;;;;;;;;;;5007741;28;20026;-75
2022/03/19 12:05:38;;;;;;;4.05;3.08;;;;;;;;;;5006923;28;20081;-75
2022/03/19 12:08:13;;;;;;;3.58;3.17;;;;;;;;;;5007366;28;20574;-75
2022/03/19 12:10:59;;;;;;;6.88;3.00;;;;;;;;;;5002752;28;20034;-75
2022/03/19 12:13:28;;;;;;;6.03;3.10;;;;;;;;;;5002313;28;20038;-76
2022/03/19 12:15:55;;;;;;;5.28;3.25;;;;;;;;;;5006114;28;20042;-73
2022/03/19 12:18:34;;;;;;;3.75;2.85;;;;;;;;;;5004228;28;20034;-76
2022/03/19 12:21:09;;;;;;;3.45;2.85;;;;;;;;;;5007962;28;20029;-76
2022/03/19 12:23:35;;;;;;;;;;;;;;;;;;5009632;28;20026;-74
2022/03/19 12:26:03;;;;;;;5.45;3.20;;;;;;;;;;5012103;28;19913;-75
2022/03/19 12:28:30;;;;;;;5.93;3.85;;;;;;;;;;5009348;28;20048;-76
2022/03/19 12:31:06;;;;;;;7.72;3.75;;;;;;;;;;5005403;28;20034;-77
2022/03/19 12:33:32;;;;;;;5.28;3.28;;;;;;;;;;5000743;28;20040;-78
2022/03/19 12:36:10;;;;;;;6.60;3.97;;;;;;;;;;5002539;28;20377;-78
2022/03/19 12:38:36;;;;;;;4.15;2.83;;;;;;;;;;5003271;28;20033;-76
2022/03/19 12:43:47;;;;;;;7.90;3.30;;;;;;;;;;5003883;28;20180;-78
2022/03/19 12:46:21;;;;;;;6.93;3.85;;;;;;;;;;5000311;28;20029;-77
2022/03/19 12:48:47;;;;;;;4.45;3.20;;;;;;;;;;4999353;28;21100;-78
2022/03/19 12:51:22;;;;;;;7.47;3.92;;;;;;;;;;4998330;28;20554;-76
2022/03/19 12:53:48;;;;;;;6.70;4.25;;;;;;;;;;5000085;28;20030;-77
2022/03/19 12:56:16;;;;;;;5.78;3.53;;;;;;;;;;5002304;28;20443;-78
2022/03/19 12:58:43;;;;;;;5.85;3.67;;;;;;;;;;5000800;28;20105;-76
2022/03/19 13:01:13;;;;;;;8.65;3.75;;;;;;;;;;5001029;28;20113;-78
2022/03/19 13:03:41;;;;;;;6.05;3.40;;;;;;;;;;4985317;28;20034;-76
2022/03/19 13:06:07;;;;;;;5.53;3.92;;;;;;;;;;5001582;28;20068;-77
2022/03/19 13:08:46;;;;;;;5.32;3.92;;;;;;;;;;5001081;28;20033;-76
2022/03/19 13:11:15;;;;;;;5.35;3.67;;;;;;;;;;4998002;28;20140;-75
2022/03/19 13:13:42;;;;;;;7.47;3.08;;;;;;;;;;5002964;28;20027;-76
2022/03/19 13:16:08;;;;;;;6.53;3.80;;;;;;;;;;4983658;28;20060;-75
2022/03/19 13:18:37;;;;;;;5.93;3.75;;;;;;;;;;5001277;28;20029;-77
2022/03/19 13:21:11;;;;;;;5.28;3.20;;;;;;;;;;5005133;28;21319;-77
2022/03/19 13:23:41;;;;;;;9.20;3.67;;;;;;;;;;5004761;28;20034;-77
2022/03/19 13:26:09;;;;;;;7.00;4.65;;;;;;;;;;5004937;28;20034;-77
2022/03/19 13:28:36;;;;;;;5.55;3.58;;;;;;;;;;5005404;28;20026;-74
2022/03/19 13:31:02;;;;;;;6.40;3.78;;;;;;;;;;5002190;28;20045;-75
2022/03/19 13:33:30;;;;;;;7.95;3.78;;;;;;;;;;5005426;28;20034;-76
2022/03/19 13:35:56;;;;;;;5.40;3.30;;;;;;;;;;5001810;28;20137;-75
2022/03/19 13:38:24;;;;;;;6.60;3.85;;;;;;;;;;5003693;28;20108;-75
2022/03/19 13:40:55;;;;;;;6.10;3.60;;;;;;;;;;5004314;28;20095;-75
2022/03/19 13:43:21;;;;;;;6.05;3.88;;;;;;;;;;5006539;28;20036;-75
2022/03/19 13:45:48;;;;;;;6.15;3.55;;;;;;;;;;5006684;28;20038;-78
2022/03/19 13:48:14;;;;;;;4.90;3.20;;;;;;;;;;5008425;28;20036;-75
2022/03/19 13:50:55;;;;;;;6.07;3.40;;;;;;;;;;5007772;28;20036;-75
2022/03/19 13:53:21;;;;;;;6.15;3.60;;;;;;;;;;5009275;28;20030;-76
2022/03/19 13:55:48;;;;;;;4.82;3.13;;;;;;;;;;5010617;28;20038;-78
2022/03/19 13:58:14;;;;;;;6.30;3.50;;;;;;;;;;5009033;28;20117;-76
2022/03/19 14:00:42;;;;;;;5.45;3.47;;;;;;;;;;5009117;28;20026;-76
2022/03/19 14:03:09;;;;;;;4.85;3.38;;;;;;;;;;5009043;28;20674;-76
2022/03/19 14:05:35;;;;;;;8.35;3.40;;;;;;;;;;5007200;28;20515;-75
2022/03/19 14:08:04;;;;;;;4.55;3.30;;;;;;;;;;5005749;28;20103;-75
2022/03/19 14:10:32;;;;;;;6.18;3.47;;;;;;;;;;4988439;28;20037;-75
2022/03/19 14:13:08;;;;;;;6.10;3.60;;;;;;;;;;5007575;28;20021;-75
2022/03/19 14:15:42;;;;;;;6.22;3.13;;;;;;;;;;5008084;28;20053;-75
2022/03/19 14:18:08;;;;;;;5.00;3.20;;;;;;;;;;5010842;28;20037;-75
2022/03/19 14:20:35;;;;;;;4.80;3.20;;;;;;;;;;4982093;28;20030;-74
2022/03/19 14:23:01;;;;;;;5.47;3.40;;;;;;;;;;5006610;28;20491;-76
2022/03/19 14:25:28;;;;;;;4.90;3.03;;;;;;;;;;5006515;28;20030;-75
2022/03/19 14:28:08;;;;;;;9.55;3.42;;;;;;;;;;4989602;28;20112;-77
2022/03/19 14:30:34;;;;;;;5.03;3.20;;;;;;;;;;5008124;28;20036;-77
2022/03/19 14:33:01;;;;;;;5.18;3.10;;;;;;;;;;5007587;28;20030;-75
2022/03/19 14:35:53;;;;;;;7.03;3.22;;;;;;;;;;5007826;28;20034;-76
2022/03/19 14:38:19;;;;;;;6.88;3.38;;;;;;;;;;5006305;28;20026;-76
2022/03/19 14:40:46;;;;;;;6.63;3.25;;;;;;;;;;5006206;28;20050;-75
2022/03/19 14:43:15;;;;;;;5.78;3.10;;;;;;;;;;4991248;28;20036;-75
2022/03/19 14:45:44;;;;;;;8.20;3.88;;;;;;;;;;5004761;28;20565;-77
2022/03/19 14:48:10;;;;;;;6.00;3.15;;;;;;;;;;5000100;28;20057;-77
2022/03/19 14:50:36;;;;;;;4.13;3.33;;;;;;;;;;5006076;28;20144;-75
2022/03/19 14:53:02;;;;;;;6.47;3.45;;;;;;;;;;5004487;28;20030;-76
2022/03/19 14:55:29;;;;;;;5.70;3.38;;;;;;;;;;5002873;28;20064;-75
2022/03/19 14:57:55;;;;;;;4.28;3.00;;;;;;;;;;5004937;28;20022;-78
2022/03/19 15:00:21;;;;;;;5.97;3.30;;;;;;;;;;5006301;28;20101;-76
2022/03/19 15:02:47;;;;;;;5.30;3.15;;;;;;;;;;5010414;28;20121;-75